Osborn, Kentucky
Current Conditions -  °F | °C
As of 11:35 PM on Sunday 21 Dec 2014 (Local Time) from KPBX Reporting Station
Scattered Clouds Scattered Clouds  
Wind Chill: 30°   Ceiling: Unl
Heat Index: 34°   Visibility: 10mi
Dew Point: 27°   Wind: 5mph
Humidity: 77%   Direction: 140°SE
Pressure: 30.11"   Gusts: NA
Location:  37.4843°N, 82.6492°W
Report Text: KPBX 220435Z AUTO 14004KT 10SM SCT036 01/M03 A3011 RMK AO2 T00101027
Loading
Personal Weather Stations






























Interactive Weather Map New forecast layout! Learn more

10-Day Weather Forecast

Advertisements
Track Severe Weather on mobile